createdAt,value
2019-03-26T00:02:28.566Z,1.93
2019-03-26T00:04:57.026Z,2.10
2019-03-26T00:07:25.582Z,1.90
2019-03-26T00:09:54.042Z,2.23
2019-03-26T00:12:22.671Z,2.07
2019-03-26T00:14:51.202Z,2.67
2019-03-26T00:17:19.767Z,1.90
2019-03-26T00:19:48.298Z,2.43
2019-03-26T00:22:16.874Z,2.10
2019-03-26T00:24:45.410Z,2.30
2019-03-26T00:27:13.930Z,1.93
2019-03-26T00:29:42.489Z,1.80
2019-03-26T00:32:11.044Z,2.37
2019-03-26T00:34:39.607Z,2.20
2019-03-26T00:37:08.140Z,2.23
2019-03-26T00:39:36.700Z,2.27
2019-03-26T00:42:05.233Z,1.80
2019-03-26T00:44:33.806Z,1.73
2019-03-26T00:47:02.267Z,2.60
2019-03-26T00:49:30.826Z,2.23
2019-03-26T00:51:59.367Z,2.03
2019-03-26T00:54:27.949Z,2.27
2019-03-26T00:56:56.405Z,2.53
2019-03-26T00:59:24.891Z,2.00
2019-03-26T01:01:53.429Z,1.80
2019-03-26T01:04:32.130Z,2.07
2019-03-26T01:06:52.102Z,1.90
2019-03-26T01:09:20.665Z,1.93
2019-03-26T01:11:49.135Z,2.23
2019-03-26T01:14:17.691Z,2.00
2019-03-26T01:16:46.230Z,2.17
2019-03-26T01:19:14.795Z,2.30
2019-03-26T01:21:43.328Z,2.20
2019-03-26T01:24:11.891Z,2.30
2019-03-26T01:26:40.427Z,2.03
2019-03-26T01:29:08.985Z,2.53
2019-03-26T01:31:37.450Z,2.47
2019-03-26T01:34:05.978Z,1.90
2019-03-26T01:36:34.537Z,1.70
2019-03-26T01:39:03.943Z,2.20
2019-03-26T01:41:32.497Z,2.77
2019-03-26T01:44:01.026Z,2.50
2019-03-26T01:46:29.590Z,2.40
2019-03-26T01:48:58.046Z,2.23
2019-03-26T01:51:26.530Z,2.30
2019-03-26T01:53:54.993Z,2.33
2019-03-26T01:56:23.630Z,2.23
2019-03-26T01:58:52.163Z,2.10
2019-03-26T02:01:20.645Z,2.00
2019-03-26T02:03:49.102Z,2.53
2019-03-26T02:06:17.670Z,1.77
2019-03-26T02:08:46.199Z,1.90
2019-03-26T02:11:14.758Z,2.20
2019-03-26T02:13:43.218Z,1.70
2019-03-26T02:16:11.786Z,1.90
2019-03-26T02:18:40.250Z,2.37
2019-03-26T02:21:09.674Z,2.10
2019-03-26T02:23:38.209Z,2.00
2019-03-26T02:26:06.767Z,2.10
2019-03-26T02:28:35.295Z,2.13
2019-03-26T02:31:03.849Z,2.00
2019-03-26T02:33:32.307Z,1.97
2019-03-26T02:36:01.254Z,2.73
2019-03-26T02:38:29.839Z,2.10
2019-03-26T02:40:58.322Z,2.47
2019-03-26T02:43:26.877Z,2.50
2019-03-26T02:45:55.341Z,3.43
2019-03-26T02:48:23.995Z,2.13
2019-03-26T02:50:52.528Z,2.13
2019-03-26T02:53:21.082Z,1.80
2019-03-26T02:55:49.616Z,2.30
2019-03-26T02:58:18.174Z,2.17
2019-03-26T03:00:46.703Z,2.00
2019-03-26T03:03:15.264Z,1.87
2019-03-26T03:05:43.867Z,2.50
2019-03-26T03:08:12.484Z,2.00
2019-03-26T03:10:40.955Z,2.60
2019-03-26T03:13:09.506Z,2.23
2019-03-26T03:15:38.038Z,2.23
2019-03-26T03:18:06.673Z,1.90
2019-03-26T03:20:35.202Z,1.93
2019-03-26T03:23:03.758Z,2.37
2019-03-26T03:25:32.284Z,1.93
2019-03-26T03:28:00.847Z,1.90
2019-03-26T03:30:29.383Z,1.87
2019-03-26T03:32:57.950Z,2.37
2019-03-26T03:35:26.482Z,2.37
2019-03-26T03:37:55.109Z,2.00
2019-03-26T03:40:23.669Z,2.27
2019-03-26T03:42:52.209Z,2.10
2019-03-26T03:45:28.358Z,1.90
2019-03-26T03:47:57.830Z,2.27
2019-03-26T03:50:29.511Z,2.00
2019-03-26T03:53:00.267Z,1.60
2019-03-26T03:55:30.073Z,2.17
2019-03-26T03:58:00.647Z,2.27
2019-03-26T04:00:37.229Z,2.20
2019-03-26T04:03:06.231Z,1.87
2019-03-26T04:05:35.219Z,2.40
2019-03-26T04:08:04.972Z,2.00
2019-03-26T04:10:33.535Z,1.60
2019-03-26T04:13:02.062Z,2.30
2019-03-26T04:15:34.652Z,2.50
2019-03-26T04:18:00.797Z,1.60
2019-03-26T04:20:29.345Z,2.20
2019-03-26T04:22:57.916Z,2.23
2019-03-26T04:25:26.534Z,2.50
2019-03-26T04:27:55.091Z,2.00
2019-03-26T04:30:28.545Z,2.40
2019-03-26T04:32:57.147Z,2.00
2019-03-26T04:35:25.782Z,2.13
2019-03-26T04:37:54.382Z,2.27
2019-03-26T04:40:22.955Z,1.70
2019-03-26T04:42:51.481Z,2.77
2019-03-26T04:45:19.971Z,2.47
2019-03-26T04:47:48.493Z,2.37
2019-03-26T04:50:16.981Z,2.50
2019-03-26T04:52:45.513Z,2.13
2019-03-26T04:55:14.073Z,2.30
2019-03-26T04:57:42.645Z,3.20
2019-03-26T05:00:11.537Z,2.47
2019-03-26T05:02:40.074Z,2.97
2019-03-26T05:05:08.634Z,2.60
2019-03-26T05:07:37.180Z,3.37
2019-03-26T05:10:08.753Z,2.70
2019-03-26T05:12:37.210Z,2.90
2019-03-26T05:15:05.833Z,2.90
2019-03-26T05:17:34.374Z,3.17
2019-03-26T05:20:02.998Z,3.60
2019-03-26T05:22:31.530Z,3.00
2019-03-26T05:25:00.107Z,3.40
2019-03-26T05:27:28.822Z,2.80
2019-03-26T05:29:57.353Z,3.10
2019-03-26T05:32:25.921Z,3.33
2019-03-26T05:34:54.457Z,2.93
2019-03-26T05:37:22.945Z,2.83
2019-03-26T05:39:51.477Z,3.40
2019-03-26T05:42:20.037Z,3.80
2019-03-26T05:44:48.569Z,3.10
2019-03-26T05:47:17.135Z,3.27
2019-03-26T05:49:45.685Z,2.73
2019-03-26T05:52:14.217Z,3.07
2019-03-26T05:54:42.670Z,3.60
2019-03-26T05:57:11.229Z,3.53
2019-03-26T05:59:39.685Z,4.97
2019-03-26T06:02:14.204Z,3.67
2019-03-26T06:04:38.422Z,3.47
2019-03-26T06:07:06.908Z,3.53
2019-03-26T06:09:35.438Z,3.57
2019-03-26T06:12:04.061Z,3.80
2019-03-26T06:14:32.517Z,4.83
2019-03-26T06:17:01.076Z,4.60
2019-03-26T06:19:29.672Z,4.77
2019-03-26T06:21:58.226Z,4.60
2019-03-26T06:24:26.774Z,4.70
2019-03-26T06:26:55.399Z,5.73
2019-03-26T06:29:24.002Z,5.90
2019-03-26T06:31:52.481Z,5.63
2019-03-26T06:34:21.019Z,6.07
2019-03-26T06:36:49.578Z,6.00
2019-03-26T06:39:18.029Z,5.30
2019-03-26T06:41:46.538Z,5.50
2019-03-26T06:44:15.038Z,7.63
2019-03-26T06:46:43.525Z,6.10
2019-03-26T06:49:12.127Z,5.83
2019-03-26T06:51:40.684Z,5.30
2019-03-26T06:54:09.148Z,5.10
2019-03-26T06:56:37.703Z,3.60
2019-03-26T06:59:06.305Z,3.67
2019-03-26T07:01:34.794Z,3.67
2019-03-26T07:04:03.966Z,4.10
2019-03-26T07:06:32.425Z,3.63
2019-03-26T07:09:00.984Z,4.80
2019-03-26T07:11:29.519Z,5.43
2019-03-26T07:13:58.144Z,4.80
2019-03-26T07:16:26.671Z,4.93
2019-03-26T07:18:55.162Z,5.77
2019-03-26T07:21:23.694Z,6.50
2019-03-26T07:23:52.342Z,6.40
2019-03-26T07:26:20.873Z,6.13
2019-03-26T07:28:49.442Z,6.50
2019-03-26T07:31:17.990Z,6.70
2019-03-26T07:33:46.571Z,7.30
2019-03-26T07:36:15.091Z,5.93
2019-03-26T07:38:43.594Z,6.57
2019-03-26T07:41:12.121Z,6.57
2019-03-26T07:43:40.577Z,5.70
2019-03-26T07:46:09.137Z,6.60
2019-03-26T07:48:37.621Z,6.30
2019-03-26T07:51:06.157Z,6.20
2019-03-26T07:53:34.647Z,6.80
2019-03-26T07:56:03.186Z,5.60
2019-03-26T07:58:33.229Z,5.37
2019-03-26T08:01:01.991Z,6.67
2019-03-26T08:03:30.541Z,5.20
2019-03-26T08:05:59.067Z,6.90
2019-03-26T08:08:27.630Z,4.57
2019-03-26T08:10:56.233Z,5.37
2019-03-26T08:13:24.805Z,5.83
2019-03-26T08:15:53.360Z,6.10
2019-03-26T08:18:21.917Z,5.70
2019-03-26T08:20:50.377Z,5.70
2019-03-26T08:23:18.939Z,5.90
2019-03-26T08:25:47.426Z,7.90
2019-03-26T08:28:15.916Z,5.07
2019-03-26T08:30:44.473Z,6.00
2019-03-26T08:33:13.009Z,6.13
2019-03-26T08:35:41.566Z,5.70
2019-03-26T08:38:13.103Z,5.30
2019-03-26T08:40:40.311Z,6.60
2019-03-26T08:43:08.846Z,5.60
2019-03-26T08:45:37.402Z,6.23
2019-03-26T08:48:06.077Z,4.80
2019-03-26T08:50:34.556Z,4.27
2019-03-26T08:53:03.014Z,3.50
2019-03-26T08:55:31.570Z,3.37
2019-03-26T08:58:00.102Z,3.73
2019-03-26T09:00:31.798Z,3.30
2019-03-26T09:02:58.841Z,4.10
2019-03-26T09:05:27.338Z,5.40
2019-03-26T09:07:55.908Z,3.97
2019-03-26T09:10:24.433Z,3.87
2019-03-26T09:12:53.347Z,2.90
2019-03-26T09:15:21.877Z,3.53
2019-03-26T09:17:50.452Z,3.23
2019-03-26T09:20:19.033Z,3.70
2019-03-26T09:22:47.629Z,3.63
2019-03-26T09:25:16.410Z,4.10
2019-03-26T09:27:44.937Z,3.10
2019-03-26T09:30:13.902Z,3.43
2019-03-26T09:32:42.469Z,3.80
2019-03-26T09:35:11.448Z,3.70
2019-03-26T09:37:40.018Z,4.17
2019-03-26T09:40:09.292Z,4.10
2019-03-26T09:42:38.502Z,3.80
2019-03-26T09:45:09.644Z,3.60
2019-03-26T09:47:38.356Z,5.30
2019-03-26T09:50:09.601Z,5.50
2019-03-26T09:52:38.239Z,5.70
2019-03-26T09:55:07.817Z,5.93
2019-03-26T09:57:37.262Z,5.23
2019-03-26T10:00:08.742Z,5.53
2019-03-26T10:02:37.386Z,5.50
2019-03-26T10:05:07.453Z,6.33
2019-03-26T10:07:35.950Z,6.10
2019-03-26T10:10:07.321Z,5.13
2019-03-26T10:12:35.906Z,4.80
2019-03-26T10:15:06.178Z,4.50
2019-03-26T10:17:34.706Z,5.07
2019-03-26T10:20:04.845Z,5.30
2019-03-26T10:22:33.306Z,5.00
2019-03-26T10:25:01.947Z,7.10
2019-03-26T10:27:30.478Z,5.00
2019-03-26T10:29:59.119Z,5.00
2019-03-26T10:32:27.570Z,4.73
2019-03-26T10:34:56.081Z,4.30
2019-03-26T10:37:25.314Z,5.03
2019-03-26T10:39:53.942Z,4.97
2019-03-26T10:42:22.482Z,5.47
2019-03-26T10:44:50.938Z,4.40
2019-03-26T10:47:19.435Z,4.43
2019-03-26T10:49:47.965Z,4.53
2019-03-26T10:52:16.461Z,4.67
2019-03-26T10:54:44.919Z,3.70
2019-03-26T10:57:13.490Z,4.47
2019-03-26T10:59:41.947Z,3.93
2019-03-26T11:02:10.514Z,4.57
2019-03-26T11:04:39.045Z,4.30
2019-03-26T11:07:07.681Z,4.30
2019-03-26T11:09:36.175Z,3.80
2019-03-26T11:12:04.942Z,3.60
2019-03-26T11:14:33.510Z,3.90
2019-03-26T11:17:02.117Z,3.63
2019-03-26T11:19:31.126Z,3.70
2019-03-26T11:21:59.725Z,3.67
2019-03-26T11:24:28.361Z,3.53
2019-03-26T11:26:56.925Z,4.27
2019-03-26T11:29:25.382Z,4.03
2019-03-26T11:31:53.878Z,4.47
2019-03-26T11:34:22.405Z,3.70
2019-03-26T11:36:50.909Z,3.70
2019-03-26T11:39:31.830Z,3.80
2019-03-26T11:41:49.610Z,3.23
2019-03-26T11:44:18.177Z,4.10
2019-03-26T11:46:46.678Z,4.50
2019-03-26T11:49:15.253Z,6.37
2019-03-26T11:51:43.782Z,4.20
2019-03-26T11:54:12.361Z,5.80
2019-03-26T11:56:40.902Z,9.60
2019-03-26T11:59:09.437Z,11.23
2019-03-26T12:01:37.937Z,6.67
2019-03-26T12:04:06.399Z,4.37
2019-03-26T12:06:35.041Z,5.73
2019-03-26T12:09:05.041Z,4.43
2019-03-26T12:11:33.611Z,4.00
2019-03-26T12:14:02.065Z,4.83
2019-03-26T12:16:30.522Z,5.80
2019-03-26T12:18:59.018Z,5.20
2019-03-26T12:21:27.474Z,4.07
2019-03-26T12:23:56.041Z,3.80
2019-03-26T12:26:24.572Z,3.93
2019-03-26T12:28:53.143Z,4.30
2019-03-26T12:31:21.668Z,3.97
2019-03-26T12:33:50.237Z,3.40
2019-03-26T12:36:19.952Z,3.83
2019-03-26T12:38:48.535Z,4.53
2019-03-26T12:41:17.067Z,3.80
2019-03-26T12:43:45.638Z,5.70
2019-03-26T12:46:14.090Z,4.97
2019-03-26T12:48:42.669Z,3.90
2019-03-26T12:51:11.195Z,3.67
2019-03-26T12:53:39.698Z,5.80
2019-03-26T12:56:08.265Z,5.10
2019-03-26T12:58:36.896Z,4.70
2019-03-26T13:01:05.493Z,4.30
2019-03-26T13:03:34.021Z,4.50
2019-03-26T13:06:02.587Z,3.90
2019-03-26T13:08:31.114Z,3.23
2019-03-26T13:10:59.685Z,3.63
2019-03-26T13:13:28.151Z,4.20
2019-03-26T13:15:56.722Z,5.23
2019-03-26T13:18:25.254Z,4.30
2019-03-26T13:20:53.822Z,3.77
2019-03-26T13:23:22.354Z,3.87
2019-03-26T13:25:50.848Z,4.07
2019-03-26T13:28:19.378Z,6.43
2019-03-26T13:30:47.948Z,6.90
2019-03-26T13:33:16.415Z,4.03
2019-03-26T13:35:44.985Z,4.33
2019-03-26T13:38:13.482Z,3.43
2019-03-26T13:40:42.086Z,3.10
2019-03-26T13:43:10.670Z,4.20
2019-03-26T13:45:39.273Z,4.10
2019-03-26T13:48:07.874Z,3.93
2019-03-26T13:50:36.441Z,4.03
2019-03-26T13:53:04.912Z,4.67
2019-03-26T13:55:33.444Z,4.10
2019-03-26T13:58:02.010Z,4.30
2019-03-26T14:00:35.752Z,3.87
2019-03-26T14:03:05.026Z,4.40
2019-03-26T14:05:33.666Z,4.30
2019-03-26T14:08:02.208Z,5.20
2019-03-26T14:10:40.902Z,4.87
2019-03-26T14:13:01.122Z,4.40
2019-03-26T14:15:29.995Z,4.50
2019-03-26T14:17:59.391Z,4.60
2019-03-26T14:20:28.293Z,4.20
2019-03-26T14:22:57.766Z,4.57
2019-03-26T14:25:26.305Z,5.00
2019-03-26T14:27:54.949Z,4.70
2019-03-26T14:30:38.346Z,5.70
2019-03-26T14:33:07.198Z,4.50
2019-03-26T14:35:35.730Z,7.27
2019-03-26T14:38:04.330Z,6.77
2019-03-26T14:40:33.665Z,7.70
2019-03-26T14:43:02.289Z,13.43
2019-03-26T14:45:30.933Z,19.70
2019-03-26T14:47:59.472Z,6.77
2019-03-26T14:50:28.113Z,7.70
2019-03-26T14:52:56.648Z,5.53
2019-03-26T14:55:25.222Z,4.10
2019-03-26T14:57:53.757Z,5.50
2019-03-26T15:00:22.403Z,6.13
2019-03-26T15:02:50.946Z,6.43
2019-03-26T15:05:19.462Z,5.67
2019-03-26T15:07:47.977Z,5.07
2019-03-26T15:10:16.958Z,5.93
2019-03-26T15:12:45.526Z,3.23
2019-03-26T15:15:14.235Z,3.83
2019-03-26T15:17:42.818Z,6.53
2019-03-26T15:20:11.423Z,3.57
2019-03-26T15:22:40.004Z,2.97
2019-03-26T15:25:09.188Z,3.20
2019-03-26T15:27:37.782Z,2.50
2019-03-26T15:30:09.873Z,2.60
2019-03-26T15:32:39.490Z,2.90
2019-03-26T15:35:08.193Z,2.80
2019-03-26T15:37:36.788Z,2.60
2019-03-26T15:40:09.762Z,2.80
2019-03-26T15:42:38.343Z,2.50
2019-03-26T15:45:08.061Z,3.27
2019-03-26T15:47:36.595Z,3.53
2019-03-26T15:50:06.917Z,3.70
2019-03-26T15:52:35.459Z,3.10
2019-03-26T15:55:04.971Z,3.37
2019-03-26T15:57:33.622Z,4.20
2019-03-26T16:00:02.193Z,3.30
2019-03-26T16:02:30.721Z,3.57
2019-03-26T16:04:59.216Z,3.67
2019-03-26T16:07:27.746Z,3.77
2019-03-26T16:09:56.313Z,4.10
2019-03-26T16:12:24.850Z,3.80
2019-03-26T16:14:53.430Z,4.50
2019-03-26T16:17:21.959Z,4.17
2019-03-26T16:19:50.497Z,6.33
2019-03-26T16:22:19.083Z,5.13
2019-03-26T16:24:47.621Z,4.30
2019-03-26T16:27:16.200Z,4.07
2019-03-26T16:29:44.751Z,4.40
2019-03-26T16:32:13.290Z,4.70
2019-03-26T16:34:41.857Z,5.10
2019-03-26T16:37:10.394Z,5.30
2019-03-26T16:39:38.987Z,5.20
2019-03-26T16:42:07.512Z,4.70
2019-03-26T16:44:36.011Z,5.40
2019-03-26T16:47:04.610Z,5.63
2019-03-26T16:49:33.540Z,6.00
2019-03-26T16:52:02.074Z,5.67
2019-03-26T16:54:30.606Z,5.03
2019-03-26T16:56:59.173Z,5.60
2019-03-26T16:59:27.631Z,5.70
2019-03-26T17:01:56.194Z,5.20
2019-03-26T17:04:24.729Z,6.33
2019-03-26T17:06:53.286Z,5.50
2019-03-26T17:09:21.829Z,5.30
2019-03-26T17:12:02.452Z,5.13
2019-03-26T17:14:20.566Z,4.97
2019-03-26T17:16:49.121Z,5.57
2019-03-26T17:19:17.651Z,4.63
2019-03-26T17:21:46.288Z,4.37
2019-03-26T17:24:14.827Z,4.70
2019-03-26T17:26:43.380Z,5.03
2019-03-26T17:29:11.920Z,4.97
2019-03-26T17:31:40.485Z,5.30
2019-03-26T17:34:09.362Z,4.53
2019-03-26T17:36:37.901Z,4.93
2019-03-26T17:39:08.667Z,4.63
2019-03-26T17:41:38.714Z,5.03
2019-03-26T17:44:07.170Z,6.07
2019-03-26T17:46:35.737Z,4.53
2019-03-26T17:49:04.298Z,4.57
2019-03-26T17:51:32.753Z,4.83
2019-03-26T17:54:01.242Z,4.53
2019-03-26T17:56:29.769Z,4.03
2019-03-26T17:58:58.342Z,4.80
2019-03-26T18:01:26.962Z,3.93
2019-03-26T18:03:55.588Z,4.83
2019-03-26T18:06:24.121Z,5.23
2019-03-26T18:08:52.693Z,4.70
2019-03-26T18:11:21.155Z,4.60
2019-03-26T18:13:49.729Z,4.50
2019-03-26T18:16:18.247Z,4.33
2019-03-26T18:18:46.806Z,4.03
2019-03-26T18:21:15.365Z,4.90
2019-03-26T18:23:43.907Z,8.10
2019-03-26T18:26:12.458Z,5.50
2019-03-26T18:28:41.014Z,4.63
2019-03-26T18:31:09.549Z,4.53
2019-03-26T18:33:38.126Z,3.93
2019-03-26T18:36:06.661Z,4.77
2019-03-26T18:38:35.217Z,6.03
2019-03-26T18:41:03.745Z,5.50
2019-03-26T18:43:32.293Z,6.10
2019-03-26T18:46:00.745Z,4.73
2019-03-26T18:48:29.233Z,5.80
2019-03-26T18:50:57.845Z,4.67
2019-03-26T18:53:26.405Z,6.10
2019-03-26T18:55:54.870Z,6.80
2019-03-26T18:58:23.406Z,7.70
2019-03-26T19:00:52.056Z,24.17
2019-03-26T19:03:20.595Z,13.07
2019-03-26T19:05:49.172Z,9.67
2019-03-26T19:08:17.755Z,8.10
2019-03-26T19:10:46.321Z,8.17
2019-03-26T19:13:19.683Z,7.40
2019-03-26T19:15:45.039Z,11.53
2019-03-26T19:18:13.629Z,13.17
2019-03-26T19:20:42.245Z,8.03
2019-03-26T19:23:10.813Z,6.80
2019-03-26T19:25:39.342Z,5.30
2019-03-26T19:28:07.930Z,8.40
2019-03-26T19:30:36.390Z,7.03
2019-03-26T19:33:05.116Z,9.27
2019-03-26T19:35:33.646Z,7.73
2019-03-26T19:38:02.361Z,7.90
2019-03-26T19:40:30.902Z,6.50
2019-03-26T19:43:10.068Z,5.53
2019-03-26T19:45:29.727Z,6.50
2019-03-26T19:47:58.253Z,6.40
2019-03-26T19:50:28.019Z,5.80
2019-03-26T19:52:56.608Z,5.63
2019-03-26T19:55:25.108Z,5.83
2019-03-26T19:57:53.565Z,6.27
2019-03-26T20:00:22.842Z,6.10
2019-03-26T20:02:51.499Z,7.17
2019-03-26T20:05:20.102Z,6.17
2019-03-26T20:07:49.721Z,6.63
2019-03-26T20:10:18.634Z,6.37
2019-03-26T20:12:47.281Z,7.33
2019-03-26T20:15:16.745Z,6.97
2019-03-26T20:17:45.277Z,6.40
2019-03-26T20:20:15.615Z,6.80
2019-03-26T20:22:44.997Z,7.40
2019-03-26T20:25:15.378Z,8.20
2019-03-26T20:27:43.902Z,7.97
2019-03-26T20:30:13.051Z,7.60
2019-03-26T20:32:41.649Z,6.67
2019-03-26T20:35:10.758Z,8.13
2019-03-26T20:37:39.293Z,7.87
2019-03-26T20:40:09.519Z,7.70
2019-03-26T20:42:38.578Z,7.57
2019-03-26T20:45:08.861Z,7.83
2019-03-26T20:47:37.488Z,8.70
2019-03-26T20:50:07.358Z,8.80
2019-03-26T20:52:36.101Z,7.73
2019-03-26T20:55:06.974Z,8.33
2019-03-26T20:57:35.633Z,8.60
2019-03-26T21:00:12.561Z,8.60
2019-03-26T21:02:41.058Z,7.67
2019-03-26T21:05:09.871Z,8.33
2019-03-26T21:07:38.882Z,8.00
2019-03-26T21:10:09.449Z,8.27
2019-03-26T21:12:38.154Z,7.33
2019-03-26T21:15:09.726Z,8.80
2019-03-26T21:17:38.453Z,9.03
2019-03-26T21:20:09.169Z,8.90
2019-03-26T21:22:37.736Z,9.57
2019-03-26T21:25:07.033Z,9.47
2019-03-26T21:27:35.537Z,9.27
2019-03-26T21:30:11.439Z,9.17
2019-03-26T21:32:37.505Z,9.73
2019-03-26T21:35:06.804Z,9.30
2019-03-26T21:37:35.449Z,9.63
2019-03-26T21:40:06.234Z,9.47
2019-03-26T21:42:34.761Z,8.90
2019-03-26T21:45:05.141Z,9.57
2019-03-26T21:47:33.681Z,10.83
2019-03-26T21:50:02.561Z,10.50
2019-03-26T21:52:33.883Z,10.97
2019-03-26T21:55:02.479Z,10.13
2019-03-26T21:57:31.037Z,11.07
2019-03-26T21:59:59.502Z,11.37
2019-03-26T22:02:27.993Z,10.87
2019-03-26T22:04:56.538Z,9.73
2019-03-26T22:07:25.119Z,9.73
2019-03-26T22:09:53.648Z,10.63
2019-03-26T22:12:22.146Z,9.93
2019-03-26T22:14:50.682Z,12.40
2019-03-26T22:17:19.246Z,10.90
2019-03-26T22:19:47.778Z,11.33
2019-03-26T22:22:16.274Z,11.73
2019-03-26T22:24:44.813Z,11.80
2019-03-26T22:27:13.377Z,12.70
2019-03-26T22:29:41.837Z,13.33
2019-03-26T22:32:10.404Z,12.50
2019-03-26T22:34:38.932Z,12.30
2019-03-26T22:37:07.442Z,12.13
2019-03-26T22:39:35.973Z,12.70
2019-03-26T22:42:04.509Z,13.37
2019-03-26T22:44:33.065Z,13.07
2019-03-26T22:47:01.535Z,13.00
2019-03-26T22:49:30.099Z,13.00
2019-03-26T22:51:58.635Z,12.90
2019-03-26T22:54:27.193Z,12.63
2019-03-26T22:56:55.649Z,11.37
2019-03-26T22:59:24.136Z,12.50
2019-03-26T23:01:52.666Z,12.67
2019-03-26T23:04:21.155Z,12.80
2019-03-26T23:06:49.841Z,12.30
2019-03-26T23:09:18.405Z,13.13
2019-03-26T23:11:46.874Z,12.10
2019-03-26T23:14:15.508Z,11.40
2019-03-26T23:16:44.049Z,12.90
2019-03-26T23:19:12.610Z,11.67
2019-03-26T23:21:41.065Z,12.53
2019-03-26T23:24:09.701Z,12.03
2019-03-26T23:26:38.162Z,12.10
2019-03-26T23:29:08.046Z,12.50
2019-03-26T23:31:36.801Z,13.87
2019-03-26T23:34:05.270Z,12.53
2019-03-26T23:36:33.830Z,12.27
2019-03-26T23:39:02.359Z,13.53
2019-03-26T23:41:30.849Z,14.20
2019-03-26T23:43:59.389Z,14.00
2019-03-26T23:46:27.878Z,13.90
2019-03-26T23:48:56.411Z,12.60
2019-03-26T23:51:25.049Z,14.20
2019-03-26T23:53:53.590Z,15.60
2019-03-26T23:56:22.150Z,12.93
2019-03-26T23:58:50.613Z,12.70
